Terminal Aerodrome Forecast
Issued by NWS

Home | Current Version | Previous Version | Text Only | Print | Product List | Glossary On
Versions: 1 2 3 4 5 6 7 8 9 10 11 12 13 14 15
579
FTUS46 KSEW 281137
TAFCLM
TAF
KCLM 281137Z 2812/2912 VRB03KT P6SM OVC025
     FM281800 VRB03KT P6SM SCT040
     FM282300 29006KT P6SM SCT040
     FM290600 VRB03KT P6SM SKC=

USA.gov is the U.S. government's official web portal to all federal, state and local government web resources and services.